Airfield :
LOGIN :

Register | Disclaimer

   EN    FR    IT 

 










Legend :    VFR   Marginal VFR   IFR   Intensive IFR   Very Intensive IFR
Visi :
Ceiling :
>= 8 km
>= 3000ft
5 to 8 km
1000 to 3000 ft
1500m to 5 km
500 to 1000 ft
800 to 1500m
200 to 500 ft
< 800m
< 200 ft
Symbols :   Thunderstorms  Fog  Heavy snow  Heavy precipitations  Wind > 20 kt
SIGMETs :     Misc.  Thunderstorms  Icing  Turbulence  Mountain Waves  Volcanic Ashes







- Airport Elevation : 160 ft
- IATA code : FMO


EDDG - Münster Osnabrück Int.

CURRENT METAR :
  • 250020Z 19010KT 160V220 CAVOK 14/09 Q1007 NOSIG

EXPIRED METARs :
  • 242350Z 19008KT 9999 BKN048 14/09 Q1008 NOSIG
  • 242320Z 19008KT 9999 BKN044 13/09 Q1009 NOSIG
  • 242250Z 18007KT 150V210 9999 FEW040 BKN050 13/09 Q1009 NOSIG
  • 242220Z 18006KT 150V210 9999 -RA NSC 12/09 Q1010 NOSIG
  • 242150Z 17004KT CAVOK 12/08 Q1010 NOSIG

TAF TAF EDDG
Valid from the 25 at 00:00 until the 26 at 00:00 UTC


242300Z 2500/2524 20008KT 9999 BKN025
TEMPO 2502/2506 SHRA BKN015TCU
BECMG 2504/2507 26015G25KT
TEMPO 2507/2511 29020G30KT
BECMG 2513/2516 26013KT
BECMG 2516/2519 23008KT
No reported NOTAMs for that airfield.



MET'MAP, your aeronautical weather chart ! - Copyright ORBIFLY December 2007 - Disclaimer

ORBIFLY MET'MAP TEAM :

Programming & Development : Alexandra Zaïnal
Concept & Development : Baudouin d'Aumeries
Co-Development & Prog : Marc-Olivier Méhu
Technical & hardware support : Manuel Goepfert

Contact : metmap@orbifly.com




SOURCES & CREDITS :

   NOAA